Goliah — WDD5908 — position and weather

sailwx.info

Track history (hours):
 
Tides and Currents Weather Stations Pressure Air Temp Water Temp Dewpoint Dewpoint Depression Visibility Wind Speed Wind Dir Waves Ship Positions

Goliah

More information available from US FCC via Universal Licensing System and Coast Guard Vessel Documentation Center.

Last reported at 2014-Jul-28 19:22 UTC. Time now 2014-Jul-28 20:35 UTC.
Position N 48°05' W 122°48'.

Length 33 m; draft 4.8 m.

Type: Tug. MMSI: 366898250.

Date/timePositionNaut miles runAvg speedWind from/ knotsBaromVisibWave heightAir tempDewpointWater temp
2014-Jul-28 19:22N 48°05' W 122°48'3 0.6
2014-Jul-28 14:29N 48°07' W 122°44'2 2.1
2014-Jul-28 13:33N 48°09' W 122°45'10 7.4
2014-Jul-28 12:08N 48°19' W 122°47'5 8.8
2014-Jul-28 11:33N 48°24' W 122°45'8 7.8
2014-Jul-28 10:33N 48°31' W 122°40'2 2.2
2014-Jul-28 09:33N 48°31' W 122°37'0 0.0
2014-Jul-28 08:33N 48°31' W 122°37'0 0.0
2014-Jul-28 07:33N 48°31' W 122°37'0 0.0
2014-Jul-28 06:33N 48°31' W 122°37'0 0.0
2014-Jul-28 05:33N 48°31' W 122°37'2 1.7
2014-Jul-28 04:33N 48°31' W 122°34'1 0.7
2014-Jul-28 03:33N 48°31' W 122°35'3 2.6
2014-Jul-28 02:33N 48°34' W 122°35'3 2.7
2014-Jul-28 01:33N 48°31' W 122°37'0 0.0
2014-Jul-28 00:33N 48°31' W 122°37'0 0.0
2014-Jul-27 23:33N 48°31' W 122°37'0 0.0
2014-Jul-27 22:33N 48°31' W 122°37'0 0.0
2014-Jul-27 21:33N 48°31' W 122°37'0 0.0
2014-Jul-27 20:33N 48°31' W 122°37'0 0.0
2014-Jul-27 19:33N 48°31' W 122°37'0 0.0
2014-Jul-27 18:32N 48°31' W 122°37'0 0.0
2014-Jul-27 17:33N 48°31' W 122°37'0 0.0
2014-Jul-27 16:33N 48°31' W 122°37'0 0.0
2014-Jul-27 15:33N 48°31' W 122°37'0 0.0
2014-Jul-27 14:33N 48°31' W 122°37'0 0.0
2014-Jul-27 13:33N 48°31' W 122°37'0 0.0
2014-Jul-27 12:33N 48°31' W 122°37'0 0.0
2014-Jul-27 11:33N 48°31' W 122°37'0 0.0
2014-Jul-27 10:33N 48°31' W 122°37'0 0.0
2014-Jul-27 09:33N 48°31' W 122°37'0 0.0
2014-Jul-27 08:33N 48°31' W 122°37'0 0.0
2014-Jul-27 07:33N 48°31' W 122°37'1 1.4
2014-Jul-27 06:33N 48°31' W 122°35'1 1.4
2014-Jul-27 05:33N 48°31' W 122°37'0 0.0
2014-Jul-27 04:33N 48°31' W 122°37'0 0.0
2014-Jul-27 03:33N 48°31' W 122°37'0 0.0
2014-Jul-27 02:33N 48°31' W 122°37'2 1.5
2014-Jul-27 01:33N 48°31' W 122°34'0 0.3
2014-Jul-27 00:33N 48°31' W 122°34'5 5.1
2014-Jul-26 23:33N 48°31' W 122°42'10 9.6
2014-Jul-26 22:33N 48°21' W 122°45'19 8.4
2014-Jul-26 20:17N 48°03' W 122°38'7 9.7
2014-Jul-26 19:33N 47°57' W 122°32'1110.9
2014-Jul-26 18:33N 47°47' W 122°26'111.2
2014-Jul-26 18:26N 47°46' W 122°26'910.3
2014-Jul-26 17:31N 47°36' W 122°22'0 0.0
2014-Jul-26 17:31N 47°36' W 122°22'1 1.5
2014-Jul-26 16:33N 47°35' W 122°21'0 0.0
2014-Jul-26 16:30N 47°35' W 122°21'0 0.0
2014-Jul-26 15:33N 47°35' W 122°21'0 0.0
2014-Jul-26 15:30N 47°35' W 122°21'0 0.0
2014-Jul-26 14:33N 47°35' W 122°21'0 0.0
2014-Jul-26 14:30N 47°35' W 122°21'0 0.0
2014-Jul-26 13:33N 47°35' W 122°21'0 0.0
2014-Jul-26 13:30N 47°35' W 122°21'1 0.6
2014-Jul-26 12:33N 47°35' W 122°21'0 0.0
2014-Jul-26 12:29N 47°35' W 122°21'1 1.0
2014-Jul-26 11:33N 47°36' W 122°21'0 1.9
2014-Jul-26 11:29N 47°36' W 122°21'0 0.4
2014-Jul-26 10:33N 47°35' W 122°21'0 1.4
2014-Jul-26 10:29N 47°35' W 122°21'0 0.0
2014-Jul-26 09:33N 47°35' W 122°21'0 0.0
2014-Jul-26 09:29N 47°35' W 122°21'0 0.0
2014-Jul-26 08:34N 47°35' W 122°21'0 0.0
2014-Jul-26 08:33N 47°35' W 122°21'0 0.0
2014-Jul-26 07:32N 47°35' W 122°21'0 0.0
2014-Jul-26 07:32N 47°35' W 122°21'0 0.0
2014-Jul-26 06:33N 47°35' W 122°21'0 0.0
2014-Jul-26 05:33N 47°35' W 122°21'0 0.0
2014-Jul-26 05:18N 47°35' W 122°21'0 0.0
2014-Jul-26 04:34N 47°35' W 122°21'0 0.0
2014-Jul-26 04:33N 47°35' W 122°21'0 0.0
2014-Jul-26 03:33N 47°35' W 122°21'0 0.0
2014-Jul-26 03:33N 47°35' W 122°21'0 0.0
2014-Jul-26 02:33N 47°35' W 122°21'0 0.0
2014-Jul-26 02:33N 47°35' W 122°21'0 0.5
2014-Jul-26 01:33N 47°36' W 122°21'0 2.3
2014-Jul-26 01:33N 47°36' W 122°21'0 0.2
2014-Jul-26 00:33N 47°36' W 122°21'0 7.3
2014-Jul-26 00:32N 47°36' W 122°21'1 0.6
2014-Jul-25 23:33N 47°35' W 122°21'0 0.0
2014-Jul-25 23:32N 47°35' W 122°21'0 0.4
2014-Jul-25 22:33N 47°36' W 122°21'0 3.0
2014-Jul-25 22:27N 47°36' W 122°21'0 0.5
2014-Jul-25 21:33N 47°35' W 122°21'0 0.0
2014-Jul-25 21:32N 47°35' W 122°21'0 0.0
2014-Jul-25 20:33N 47°35' W 122°21'0 0.0
2014-Jul-25 20:31N 47°35' W 122°21'0 0.0
2014-Jul-25 19:33N 47°35' W 122°21'0 0.0
2014-Jul-25 19:31N 47°35' W 122°21'0 0.0
2014-Jul-25 18:33N 47°35' W 122°21'0 0.0
2014-Jul-25 18:31N 47°35' W 122°21'1 0.9
2014-Jul-25 17:33N 47°36' W 122°21'1 0.7
2014-Jul-25 16:33N 47°36' W 122°21'1 0.5
2014-Jul-25 15:37N 47°35' W 122°21'0 0.9
2014-Jul-25 15:34N 47°35' W 122°21'0 2.5
2014-Jul-25 15:32N 47°35' W 122°21'1 0.7
2014-Jul-25 14:33N 47°36' W 122°21'0 4.3
2014-Jul-25 14:32N 47°36' W 122°21'0 0.4
2014-Jul-25 13:33N 47°36' W 122°21'1 2.3
2014-Jul-25 13:10N 47°36' W 122°22'1 1.2
2014-Jul-25 12:33N 47°36' W 122°23'0 3.5
2014-Jul-25 12:31N 47°36' W 122°23'1010.0
2014-Jul-25 11:33N 47°26' W 122°23'1010.1
2014-Jul-25 10:33N 47°16' W 122°25'0 0.3
2014-Jul-25 09:33N 47°16' W 122°25'2 1.8
2014-Jul-25 08:33N 47°15' W 122°23'2 1.8
2014-Jul-25 07:33N 47°17' W 122°25'1 1.3
2014-Jul-25 06:33N 47°16' W 122°23'1 1.3
2014-Jul-25 05:33N 47°16' W 122°25'1 1.2
2014-Jul-25 04:33N 47°17' W 122°26'1 0.8
2014-Jul-25 03:33N 47°17' W 122°25'6 6.0
2014-Jul-25 02:33N 47°22' W 122°23'1111.5
2014-Jul-25 01:36N 47°33' W 122°25'112.5
2014-Jul-25 01:33N 47°34' W 122°25'011.6
2014-Jul-25 01:32N 47°34' W 122°25'3 2.7
2014-Jul-25 00:33N 47°35' W 122°22'0 0.2
2014-Jul-25 00:31N 47°35' W 122°22'1 1.0
2014-Jul-24 23:33N 47°35' W 122°21'0 0.0
2014-Jul-24 23:31N 47°35' W 122°21'0 0.0
2014-Jul-24 22:33N 47°35' W 122°21'0 0.0
2014-Jul-24 22:31N 47°35' W 122°21'0 0.0
2014-Jul-24 21:33N 47°35' W 122°21'0 0.0
2014-Jul-24 21:31N 47°35' W 122°21'0 0.0
2014-Jul-24 20:33N 47°35' W 122°21'0 0.0
2014-Jul-24 20:31N 47°35' W 122°21'2 2.3
2014-Jul-24 19:33N 47°36' W 122°24'0 6.1
2014-Jul-24 19:30N 47°35' W 122°24'2 2.5
2014-Jul-24 18:33N 47°35' W 122°21'0 0.0
2014-Jul-24 18:30N 47°35' W 122°21'0 0.0
2014-Jul-24 17:33N 47°35' W 122°21'0 0.0
2014-Jul-24 17:30N 47°35' W 122°21'0 0.0
2014-Jul-24 16:33N 47°35' W 122°21'0 0.0
2014-Jul-24 16:30N 47°35' W 122°21'0 0.0
2014-Jul-24 15:33N 47°35' W 122°21'0 0.4
2014-Jul-24 15:33N 47°35' W 122°21'1 0.5
2014-Jul-24 14:33N 47°36' W 122°21'0 4.8
2014-Jul-24 14:33N 47°36' W 122°21'8 8.4
2014-Jul-24 13:33N 47°28' W 122°24'611.9
2014-Jul-24 13:01N 47°22' W 122°23'5 9.9
2014-Jul-24 12:33N 47°17' W 122°25'2 1.7
2014-Jul-24 11:23N 47°16' W 122°23'0 0.1
2014-Jul-24 10:33N 47°16' W 122°23'2 2.3
2014-Jul-24 09:30N 47°18' W 122°26'0 0.0
2014-Jul-24 08:33N 47°18' W 122°26'0 0.0
2014-Jul-24 07:33N 47°18' W 122°26'0 0.0
2014-Jul-24 06:33N 47°18' W 122°26'0 0.0
2014-Jul-24 05:33N 47°18' W 122°26'0 0.0
2014-Jul-24 04:33N 47°18' W 122°26'0 0.0
2014-Jul-24 03:32N 47°18' W 122°26'0 0.0
2014-Jul-24 02:33N 47°18' W 122°26'0 0.0
2014-Jul-24 01:33N 47°18' W 122°26'2 2.3
2014-Jul-24 00:33N 47°16' W 122°24'3 2.5
2014-Jul-23 23:33N 47°18' W 122°26'0 0.3
2014-Jul-23 22:33N 47°18' W 122°26'4 4.5
2014-Jul-23 21:33N 47°22' W 122°24'2 9.4
2014-Jul-23 21:22N 47°23' W 122°22'810.1
2014-Jul-23 20:33N 47°31' W 122°26'310.1
2014-Jul-23 20:17N 47°34' W 122°27'5 6.4
2014-Jul-23 19:33N 47°35' W 122°21'0 0.0
2014-Jul-23 19:32N 47°35' W 122°21'0 0.0
2014-Jul-23 18:33N 47°35' W 122°21'0 0.0
2014-Jul-23 18:32N 47°35' W 122°21'0 0.0
2014-Jul-23 17:33N 47°35' W 122°21'0 0.0
2014-Jul-23 17:32N 47°35' W 122°21'0 0.0
2014-Jul-23 16:33N 47°35' W 122°21'0 0.0
2014-Jul-23 16:31N 47°35' W 122°21'0 0.0
2014-Jul-23 15:33N 47°35' W 122°21'0 0.0
2014-Jul-23 15:31N 47°35' W 122°21'0 0.0
2014-Jul-23 14:33N 47°35' W 122°21'0 0.0
2014-Jul-23 14:31N 47°35' W 122°21'0 0.0
2014-Jul-23 13:32N 47°35' W 122°21'0 0.0
2014-Jul-23 13:30N 47°35' W 122°21'0 0.0
2014-Jul-23 12:33N 47°35' W 122°21'0 0.0
2014-Jul-23 12:31N 47°35' W 122°21'0 0.0
2014-Jul-23 11:33N 47°35' W 122°21'0 0.0
2014-Jul-23 11:31N 47°35' W 122°21'0 0.0
2014-Jul-23 10:33N 47°35' W 122°21'0 2.5
2014-Jul-23 10:30N 47°35' W 122°21'1 1.0
2014-Jul-23 09:33N 47°35' W 122°22'0 0.1
2014-Jul-23 09:30N 47°35' W 122°22'1 0.6
2014-Jul-23 08:33N 47°35' W 122°22'0 2.1
2014-Jul-23 08:30N 47°35' W 122°22'0 0.5
2014-Jul-23 07:33N 47°35' W 122°21'0 0.1
2014-Jul-23 07:30N 47°35' W 122°21'0 0.0
2014-Jul-23 06:33N 47°35' W 122°21'0 0.0
2014-Jul-23 06:30N 47°35' W 122°21'0 0.0
2014-Jul-23 05:54N 47°35' W 122°21'0 0.0
2014-Jul-23 05:33N 47°35' W 122°21'0 0.0
2014-Jul-23 04:34N 47°35' W 122°21'0 0.0
2014-Jul-23 04:33N 47°35' W 122°21'0 0.0
2014-Jul-23 03:34N 47°35' W 122°21'0 0.0
2014-Jul-23 03:33N 47°35' W 122°21'0 0.0
2014-Jul-23 02:34N 47°35' W 122°21'0 0.0
2014-Jul-23 02:33N 47°35' W 122°21'7 6.8
2014-Jul-23 01:33N 47°29' W 122°24'9 9.3
2014-Jul-23 00:33N 47°20' W 122°26'3 3.0
2014-Jul-22 23:33N 47°17' W 122°26'5 4.7
2014-Jul-22 22:33N 47°21' W 122°25'4 9.0
2014-Jul-22 22:09N 47°24' W 122°22'610.5
2014-Jul-22 21:33N 47°30' W 122°26'110.3
2014-Jul-22 21:25N 47°31' W 122°26'910.4
2014-Jul-22 20:33N 47°40' W 122°28'110.4
2014-Jul-22 20:30N 47°41' W 122°28'4 4.4
2014-Jul-22 19:33N 47°37' W 122°27'112.0
2014-Jul-22 19:30N 47°36' W 122°27'4 4.1
2014-Jul-22 18:34N 47°35' W 122°21'0 0.6
2014-Jul-22 18:30N 47°35' W 122°21'0 0.0
2014-Jul-22 17:33N 47°35' W 122°21'0 0.0
2014-Jul-22 17:29N 47°35' W 122°21'0 0.0
2014-Jul-22 16:33N 47°35' W 122°21'0 0.0
2014-Jul-22 16:29N 47°35' W 122°21'0 0.0
2014-Jul-22 15:33N 47°35' W 122°21'0 0.0
2014-Jul-22 15:24N 47°35' W 122°21'0 0.0
2014-Jul-22 14:34N 47°35' W 122°21'0 0.0
2014-Jul-22 14:33N 47°35' W 122°21'2 1.6
2014-Jul-22 13:33N 47°36' W 122°23'0 0.0
2014-Jul-22 13:33N 47°36' W 122°23'8 8.3
2014-Jul-22 12:33N 47°44' W 122°27'0 8.3
2014-Jul-22 12:33N 47°44' W 122°27'9 9.1
2014-Jul-22 11:33N 47°53' W 122°29'0 8.3
2014-Jul-22 11:32N 47°53' W 122°30'7 7.5
2014-Jul-22 10:33N 47°59' W 122°37'8 8.1
2014-Jul-22 09:30N 48°07' W 122°41'16 8.3
2014-Jul-22 07:33N 48°23' W 122°45'9 8.5
2014-Jul-22 06:33N 48°31' W 122°42'3 3.5
2014-Jul-22 05:33N 48°31' W 122°36'1 1.3
2014-Jul-22 04:33N 48°31' W 122°35'1 1.0
2014-Jul-22 03:33N 48°31' W 122°34'2 2.1
2014-Jul-22 02:33N 48°31' W 122°37'0 0.0
2014-Jul-22 01:33N 48°31' W 122°37'0 0.0
2014-Jul-22 00:33N 48°31' W 122°37'0 0.0
2014-Jul-21 23:33N 48°31' W 122°37'0 0.0
2014-Jul-21 22:33N 48°31' W 122°37'0 0.0
2014-Jul-21 21:33N 48°31' W 122°37'0 0.0
2014-Jul-21 20:33N 48°31' W 122°37'0 0.0
2014-Jul-21 20:18N 48°31' W 122°37'0 0.0
2014-Jul-21 19:33N 48°31' W 122°37'0 0.0
2014-Jul-21 18:33N 48°31' W 122°37'0 0.0
2014-Jul-21 17:33N 48°31' W 122°37'0 0.0
2014-Jul-21 16:33N 48°31' W 122°37'0 0.0
2014-Jul-21 15:33N 48°31' W 122°37'0 0.0
2014-Jul-21 14:33N 48°31' W 122°37'0 0.0
2014-Jul-21 13:33N 48°31' W 122°37'0 0.0
2014-Jul-21 12:33N 48°31' W 122°37'0 0.0
2014-Jul-21 11:33N 48°31' W 122°37'0 0.0
2014-Jul-21 10:33N 48°31' W 122°37'0 0.0
2014-Jul-21 09:33N 48°31' W 122°37'0 0.0
2014-Jul-21 08:33N 48°31' W 122°37'2 1.8
2014-Jul-21 07:33N 48°31' W 122°34'2 1.8
2014-Jul-21 06:33N 48°31' W 122°37'0 0.0
2014-Jul-21 05:33N 48°31' W 122°37'2 1.6
2014-Jul-21 04:33N 48°31' W 122°35'0 0.1
2014-Jul-21 03:33N 48°31' W 122°35'2 1.6
2014-Jul-21 02:33N 48°31' W 122°37'0 0.0
2014-Jul-21 01:33N 48°31' W 122°37'0 0.0
2014-Jul-21 00:33N 48°31' W 122°37'0 0.0
2014-Jul-20 23:33N 48°31' W 122°37'0 0.0
2014-Jul-20 22:33N 48°31' W 122°37'0 0.0
2014-Jul-20 21:33N 48°31' W 122°37'0 0.0
2014-Jul-20 20:33N 48°31' W 122°37'0 0.0
2014-Jul-20 19:33N 48°31' W 122°37'0 0.0
2014-Jul-20 18:33N 48°31' W 122°37'0 0.0
2014-Jul-20 17:33N 48°31' W 122°37'0 0.0
2014-Jul-20 16:33N 48°31' W 122°37'0 0.0
2014-Jul-20 15:33N 48°31' W 122°37'0 0.0
2014-Jul-20 14:33N 48°31' W 122°37'0 0.0
2014-Jul-20 13:33N 48°31' W 122°37'0 0.0
2014-Jul-20 12:33N 48°31' W 122°37'0 0.0
2014-Jul-20 11:33N 48°31' W 122°37'0 0.0
2014-Jul-20 10:33N 48°31' W 122°37'0 0.0
2014-Jul-20 09:33N 48°31' W 122°37'0 0.0
2014-Jul-20 08:33N 48°31' W 122°37'0 0.0
2014-Jul-20 07:33N 48°31' W 122°37'0 0.0
2014-Jul-20 06:33N 48°31' W 122°37'0 0.0
2014-Jul-20 05:33N 48°31' W 122°37'2 2.0
2014-Jul-20 04:33N 48°31' W 122°34'0 0.2
2014-Jul-20 03:33N 48°31' W 122°34'0 0.2
2014-Jul-20 02:33N 48°31' W 122°34'2 1.6
2014-Jul-20 01:33N 48°31' W 122°37'0 0.0
2014-Jul-20 00:33N 48°31' W 122°37'0 0.0
2014-Jul-19 23:33N 48°31' W 122°37'0 0.0
2014-Jul-19 22:33N 48°31' W 122°37'0 0.0
2014-Jul-19 21:33N 48°31' W 122°37'0 0.0
2014-Jul-19 20:33N 48°31' W 122°37'0 0.0
2014-Jul-19 19:33N 48°31' W 122°37'0 0.0
2014-Jul-19 18:33N 48°31' W 122°37'0 0.0
2014-Jul-19 17:33N 48°31' W 122°37'0 0.0
2014-Jul-19 16:33N 48°31' W 122°37'0 0.0
2014-Jul-19 15:33N 48°31' W 122°37'0 0.0
2014-Jul-19 14:33N 48°31' W 122°37'0 0.0
2014-Jul-19 13:33N 48°31' W 122°37'0 0.0
2014-Jul-19 12:33N 48°31' W 122°37'0 0.0
2014-Jul-19 11:33N 48°31' W 122°37'2 1.8
2014-Jul-19 10:33N 48°31' W 122°34'0 0.0
2014-Jul-19 09:33N 48°31' W 122°34'0 0.1
2014-Jul-19 08:33N 48°31' W 122°34'0 0.2
2014-Jul-19 07:33N 48°31' W 122°34'2 1.6
2014-Jul-19 06:33N 48°31' W 122°37'0 0.0
2014-Jul-19 05:33N 48°31' W 122°37'0 0.0
2014-Jul-19 04:33N 48°31' W 122°37'0 0.0
2014-Jul-19 03:33N 48°31' W 122°37'0 0.0
2014-Jul-19 02:33N 48°31' W 122°37'0 0.0
2014-Jul-19 01:33N 48°31' W 122°37'0 0.0
2014-Jul-19 00:33N 48°31' W 122°37'0 0.0
2014-Jul-18 23:33N 48°31' W 122°37'0 0.0
2014-Jul-18 22:33N 48°31' W 122°37'0 0.0
2014-Jul-18 21:33N 48°31' W 122°37'0 0.0
2014-Jul-18 20:33N 48°31' W 122°37'0 0.0
2014-Jul-18 19:33N 48°31' W 122°37'  
Track history (hours):
 
Tides and Currents Weather Stations Pressure Air Temp Water Temp Dewpoint Dewpoint Depression Visibility Wind Speed Wind Dir Waves Ship Positions

Goliah

More information available from US FCC via Universal Licensing System and Coast Guard Vessel Documentation Center.

Last reported at 2014-Jul-28 19:22 UTC. Time now 2014-Jul-28 20:35 UTC.
Position N 48°05' W 122°48'.

Length 33 m; draft 4.8 m.

Type: Tug. MMSI: 366898250.

Date/timePositionNaut miles runAvg speedWind from/ knotsBaromVisibWave heightAir tempDewpointWater temp
2014-Jul-28 19:22N 48°05' W 122°48'3 0.6
2014-Jul-28 14:29N 48°07' W 122°44'2 2.1
2014-Jul-28 13:33N 48°09' W 122°45'10 7.4
2014-Jul-28 12:08N 48°19' W 122°47'5 8.8
2014-Jul-28 11:33N 48°24' W 122°45'8 7.8
2014-Jul-28 10:33N 48°31' W 122°40'2 2.2
2014-Jul-28 09:33N 48°31' W 122°37'0 0.0
2014-Jul-28 08:33N 48°31' W 122°37'0 0.0
2014-Jul-28 07:33N 48°31' W 122°37'0 0.0
2014-Jul-28 06:33N 48°31' W 122°37'0 0.0
2014-Jul-28 05:33N 48°31' W 122°37'2 1.7
2014-Jul-28 04:33N 48°31' W 122°34'1 0.7
2014-Jul-28 03:33N 48°31' W 122°35'3 2.6
2014-Jul-28 02:33N 48°34' W 122°35'3 2.7
2014-Jul-28 01:33N 48°31' W 122°37'0 0.0
2014-Jul-28 00:33N 48°31' W 122°37'0 0.0
2014-Jul-27 23:33N 48°31' W 122°37'0 0.0
2014-Jul-27 22:33N 48°31' W 122°37'0 0.0
2014-Jul-27 21:33N 48°31' W 122°37'0 0.0
2014-Jul-27 20:33N 48°31' W 122°37'0 0.0
2014-Jul-27 19:33N 48°31' W 122°37'0 0.0
2014-Jul-27 18:32N 48°31' W 122°37'0 0.0
2014-Jul-27 17:33N 48°31' W 122°37'0 0.0
2014-Jul-27 16:33N 48°31' W 122°37'0 0.0
2014-Jul-27 15:33N 48°31' W 122°37'0 0.0
2014-Jul-27 14:33N 48°31' W 122°37'0 0.0
2014-Jul-27 13:33N 48°31' W 122°37'0 0.0
2014-Jul-27 12:33N 48°31' W 122°37'0 0.0
2014-Jul-27 11:33N 48°31' W 122°37'0 0.0
2014-Jul-27 10:33N 48°31' W 122°37'0 0.0
2014-Jul-27 09:33N 48°31' W 122°37'0 0.0
2014-Jul-27 08:33N 48°31' W 122°37'0 0.0
2014-Jul-27 07:33N 48°31' W 122°37'1 1.4
2014-Jul-27 06:33N 48°31' W 122°35'1 1.4
2014-Jul-27 05:33N 48°31' W 122°37'0 0.0
2014-Jul-27 04:33N 48°31' W 122°37'0 0.0
2014-Jul-27 03:33N 48°31' W 122°37'0 0.0
2014-Jul-27 02:33N 48°31' W 122°37'2 1.5
2014-Jul-27 01:33N 48°31' W 122°34'0 0.3
2014-Jul-27 00:33N 48°31' W 122°34'5 5.1
2014-Jul-26 23:33N 48°31' W 122°42'10 9.6
2014-Jul-26 22:33N 48°21' W 122°45'19 8.4
2014-Jul-26 20:17N 48°03' W 122°38'7 9.7
2014-Jul-26 19:33N 47°57' W 122°32'1110.9
2014-Jul-26 18:33N 47°47' W 122°26'111.2
2014-Jul-26 18:26N 47°46' W 122°26'910.3
2014-Jul-26 17:31N 47°36' W 122°22'0 0.0
2014-Jul-26 17:31N 47°36' W 122°22'1 1.5
2014-Jul-26 16:33N 47°35' W 122°21'0 0.0
2014-Jul-26 16:30N 47°35' W 122°21'0 0.0
2014-Jul-26 15:33N 47°35' W 122°21'0 0.0
2014-Jul-26 15:30N 47°35' W 122°21'0 0.0
2014-Jul-26 14:33N 47°35' W 122°21'0 0.0
2014-Jul-26 14:30N 47°35' W 122°21'0 0.0
2014-Jul-26 13:33N 47°35' W 122°21'0 0.0
2014-Jul-26 13:30N 47°35' W 122°21'1 0.6
2014-Jul-26 12:33N 47°35' W 122°21'0 0.0
2014-Jul-26 12:29N 47°35' W 122°21'1 1.0
2014-Jul-26 11:33N 47°36' W 122°21'0 1.9
2014-Jul-26 11:29N 47°36' W 122°21'0 0.4
2014-Jul-26 10:33N 47°35' W 122°21'0 1.4
2014-Jul-26 10:29N 47°35' W 122°21'0 0.0
2014-Jul-26 09:33N 47°35' W 122°21'0 0.0
2014-Jul-26 09:29N 47°35' W 122°21'0 0.0
2014-Jul-26 08:34N 47°35' W 122°21'0 0.0
2014-Jul-26 08:33N 47°35' W 122°21'0 0.0
2014-Jul-26 07:32N 47°35' W 122°21'0 0.0
2014-Jul-26 07:32N 47°35' W 122°21'0 0.0
2014-Jul-26 06:33N 47°35' W 122°21'0 0.0
2014-Jul-26 05:33N 47°35' W 122°21'0 0.0
2014-Jul-26 05:18N 47°35' W 122°21'0 0.0
2014-Jul-26 04:34N 47°35' W 122°21'0 0.0
2014-Jul-26 04:33N 47°35' W 122°21'0 0.0
2014-Jul-26 03:33N 47°35' W 122°21'0 0.0
2014-Jul-26 03:33N 47°35' W 122°21'0 0.0
2014-Jul-26 02:33N 47°35' W 122°21'0 0.0
2014-Jul-26 02:33N 47°35' W 122°21'0 0.5
2014-Jul-26 01:33N 47°36' W 122°21'0 2.3
2014-Jul-26 01:33N 47°36' W 122°21'0 0.2
2014-Jul-26 00:33N 47°36' W 122°21'0 7.3
2014-Jul-26 00:32N 47°36' W 122°21'1 0.6
2014-Jul-25 23:33N 47°35' W 122°21'0 0.0
2014-Jul-25 23:32N 47°35' W 122°21'0 0.4
2014-Jul-25 22:33N 47°36' W 122°21'0 3.0
2014-Jul-25 22:27N 47°36' W 122°21'0 0.5
2014-Jul-25 21:33N 47°35' W 122°21'0 0.0
2014-Jul-25 21:32N 47°35' W 122°21'0 0.0
2014-Jul-25 20:33N 47°35' W 122°21'0 0.0
2014-Jul-25 20:31N 47°35' W 122°21'0 0.0
2014-Jul-25 19:33N 47°35' W 122°21'0 0.0
2014-Jul-25 19:31N 47°35' W 122°21'0 0.0
2014-Jul-25 18:33N 47°35' W 122°21'0 0.0
2014-Jul-25 18:31N 47°35' W 122°21'1 0.9
2014-Jul-25 17:33N 47°36' W 122°21'1 0.7
2014-Jul-25 16:33N 47°36' W 122°21'1 0.5
2014-Jul-25 15:37N 47°35' W 122°21'0 0.9
2014-Jul-25 15:34N 47°35' W 122°21'0 2.5
2014-Jul-25 15:32N 47°35' W 122°21'1 0.7
2014-Jul-25 14:33N 47°36' W 122°21'0 4.3
2014-Jul-25 14:32N 47°36' W 122°21'0 0.4
2014-Jul-25 13:33N 47°36' W 122°21'1 2.3
2014-Jul-25 13:10N 47°36' W 122°22'1 1.2
2014-Jul-25 12:33N 47°36' W 122°23'0 3.5
2014-Jul-25 12:31N 47°36' W 122°23'1010.0
2014-Jul-25 11:33N 47°26' W 122°23'1010.1
2014-Jul-25 10:33N 47°16' W 122°25'0 0.3
2014-Jul-25 09:33N 47°16' W 122°25'2 1.8
2014-Jul-25 08:33N 47°15' W 122°23'2 1.8
2014-Jul-25 07:33N 47°17' W 122°25'1 1.3
2014-Jul-25 06:33N 47°16' W 122°23'1 1.3
2014-Jul-25 05:33N 47°16' W 122°25'1 1.2
2014-Jul-25 04:33N 47°17' W 122°26'1 0.8
2014-Jul-25 03:33N 47°17' W 122°25'6 6.0
2014-Jul-25 02:33N 47°22' W 122°23'1111.5
2014-Jul-25 01:36N 47°33' W 122°25'112.5
2014-Jul-25 01:33N 47°34' W 122°25'011.6
2014-Jul-25 01:32N 47°34' W 122°25'3 2.7
2014-Jul-25 00:33N 47°35' W 122°22'0 0.2
2014-Jul-25 00:31N 47°35' W 122°22'1 1.0
2014-Jul-24 23:33N 47°35' W 122°21'0 0.0
2014-Jul-24 23:31N 47°35' W 122°21'0 0.0
2014-Jul-24 22:33N 47°35' W 122°21'0 0.0
2014-Jul-24 22:31N 47°35' W 122°21'0 0.0
2014-Jul-24 21:33N 47°35' W 122°21'0 0.0
2014-Jul-24 21:31N 47°35' W 122°21'0 0.0
2014-Jul-24 20:33N 47°35' W 122°21'0 0.0
2014-Jul-24 20:31N 47°35' W 122°21'2 2.3
2014-Jul-24 19:33N 47°36' W 122°24'0 6.1
2014-Jul-24 19:30N 47°35' W 122°24'2 2.5
2014-Jul-24 18:33N 47°35' W 122°21'0 0.0
2014-Jul-24 18:30N 47°35' W 122°21'0 0.0
2014-Jul-24 17:33N 47°35' W 122°21'0 0.0
2014-Jul-24 17:30N 47°35' W 122°21'0 0.0
2014-Jul-24 16:33N 47°35' W 122°21'0 0.0
2014-Jul-24 16:30N 47°35' W 122°21'0 0.0
2014-Jul-24 15:33N 47°35' W 122°21'0 0.4
2014-Jul-24 15:33N 47°35' W 122°21'1 0.5
2014-Jul-24 14:33N 47°36' W 122°21'0 4.8
2014-Jul-24 14:33N 47°36' W 122°21'8 8.4
2014-Jul-24 13:33N 47°28' W 122°24'611.9
2014-Jul-24 13:01N 47°22' W 122°23'5 9.9
2014-Jul-24 12:33N 47°17' W 122°25'2 1.7
2014-Jul-24 11:23N 47°16' W 122°23'0 0.1
2014-Jul-24 10:33N 47°16' W 122°23'2 2.3
2014-Jul-24 09:30N 47°18' W 122°26'0 0.0
2014-Jul-24 08:33N 47°18' W 122°26'0 0.0
2014-Jul-24 07:33N 47°18' W 122°26'0 0.0
2014-Jul-24 06:33N 47°18' W 122°26'0 0.0
2014-Jul-24 05:33N 47°18' W 122°26'0 0.0
2014-Jul-24 04:33N 47°18' W 122°26'0 0.0
2014-Jul-24 03:32N 47°18' W 122°26'0 0.0
2014-Jul-24 02:33N 47°18' W 122°26'0 0.0
2014-Jul-24 01:33N 47°18' W 122°26'2 2.3
2014-Jul-24 00:33N 47°16' W 122°24'3 2.5
2014-Jul-23 23:33N 47°18' W 122°26'0 0.3
2014-Jul-23 22:33N 47°18' W 122°26'4 4.5
2014-Jul-23 21:33N 47°22' W 122°24'2 9.4
2014-Jul-23 21:22N 47°23' W 122°22'810.1
2014-Jul-23 20:33N 47°31' W 122°26'310.1
2014-Jul-23 20:17N 47°34' W 122°27'5 6.4
2014-Jul-23 19:33N 47°35' W 122°21'0 0.0
2014-Jul-23 19:32N 47°35' W 122°21'0 0.0
2014-Jul-23 18:33N 47°35' W 122°21'0 0.0
2014-Jul-23 18:32N 47°35' W 122°21'0 0.0
2014-Jul-23 17:33N 47°35' W 122°21'0 0.0
2014-Jul-23 17:32N 47°35' W 122°21'0 0.0
2014-Jul-23 16:33N 47°35' W 122°21'0 0.0
2014-Jul-23 16:31N 47°35' W 122°21'0 0.0
2014-Jul-23 15:33N 47°35' W 122°21'0 0.0
2014-Jul-23 15:31N 47°35' W 122°21'0 0.0
2014-Jul-23 14:33N 47°35' W 122°21'0 0.0
2014-Jul-23 14:31N 47°35' W 122°21'0 0.0
2014-Jul-23 13:32N 47°35' W 122°21'0 0.0
2014-Jul-23 13:30N 47°35' W 122°21'0 0.0
2014-Jul-23 12:33N 47°35' W 122°21'0 0.0
2014-Jul-23 12:31N 47°35' W 122°21'0 0.0
2014-Jul-23 11:33N 47°35' W 122°21'0 0.0
2014-Jul-23 11:31N 47°35' W 122°21'0 0.0
2014-Jul-23 10:33N 47°35' W 122°21'0 2.5
2014-Jul-23 10:30N 47°35' W 122°21'1 1.0
2014-Jul-23 09:33N 47°35' W 122°22'0 0.1
2014-Jul-23 09:30N 47°35' W 122°22'1 0.6
2014-Jul-23 08:33N 47°35' W 122°22'0 2.1
2014-Jul-23 08:30N 47°35' W 122°22'0 0.5
2014-Jul-23 07:33N 47°35' W 122°21'0 0.1
2014-Jul-23 07:30N 47°35' W 122°21'0 0.0
2014-Jul-23 06:33N 47°35' W 122°21'0 0.0
2014-Jul-23 06:30N 47°35' W 122°21'0 0.0
2014-Jul-23 05:54N 47°35' W 122°21'0 0.0
2014-Jul-23 05:33N 47°35' W 122°21'0 0.0
2014-Jul-23 04:34N 47°35' W 122°21'0 0.0
2014-Jul-23 04:33N 47°35' W 122°21'0 0.0
2014-Jul-23 03:34N 47°35' W 122°21'0 0.0
2014-Jul-23 03:33N 47°35' W 122°21'0 0.0
2014-Jul-23 02:34N 47°35' W 122°21'0 0.0
2014-Jul-23 02:33N 47°35' W 122°21'7 6.8
2014-Jul-23 01:33N 47°29' W 122°24'9 9.3
2014-Jul-23 00:33N 47°20' W 122°26'3 3.0
2014-Jul-22 23:33N 47°17' W 122°26'5 4.7
2014-Jul-22 22:33N 47°21' W 122°25'4 9.0
2014-Jul-22 22:09N 47°24' W 122°22'610.5
2014-Jul-22 21:33N 47°30' W 122°26'110.3
2014-Jul-22 21:25N 47°31' W 122°26'910.4
2014-Jul-22 20:33N 47°40' W 122°28'110.4
2014-Jul-22 20:30N 47°41' W 122°28'4 4.4
2014-Jul-22 19:33N 47°37' W 122°27'112.0
2014-Jul-22 19:30N 47°36' W 122°27'4 4.1
2014-Jul-22 18:34N 47°35' W 122°21'0 0.6
2014-Jul-22 18:30N 47°35' W 122°21'0 0.0
2014-Jul-22 17:33N 47°35' W 122°21'0 0.0
2014-Jul-22 17:29N 47°35' W 122°21'0 0.0
2014-Jul-22 16:33N 47°35' W 122°21'0 0.0
2014-Jul-22 16:29N 47°35' W 122°21'0 0.0
2014-Jul-22 15:33N 47°35' W 122°21'0 0.0
2014-Jul-22 15:24N 47°35' W 122°21'0 0.0
2014-Jul-22 14:34N 47°35' W 122°21'0 0.0
2014-Jul-22 14:33N 47°35' W 122°21'2 1.6
2014-Jul-22 13:33N 47°36' W 122°23'0 0.0
2014-Jul-22 13:33N 47°36' W 122°23'8 8.3
2014-Jul-22 12:33N 47°44' W 122°27'0 8.3
2014-Jul-22 12:33N 47°44' W 122°27'9 9.1
2014-Jul-22 11:33N 47°53' W 122°29'0 8.3
2014-Jul-22 11:32N 47°53' W 122°30'7 7.5
2014-Jul-22 10:33N 47°59' W 122°37'8 8.1
2014-Jul-22 09:30N 48°07' W 122°41'16 8.3
2014-Jul-22 07:33N 48°23' W 122°45'9 8.5
2014-Jul-22 06:33N 48°31' W 122°42'3 3.5
2014-Jul-22 05:33N 48°31' W 122°36'1 1.3
2014-Jul-22 04:33N 48°31' W 122°35'1 1.0
2014-Jul-22 03:33N 48°31' W 122°34'2 2.1
2014-Jul-22 02:33N 48°31' W 122°37'0 0.0
2014-Jul-22 01:33N 48°31' W 122°37'0 0.0
2014-Jul-22 00:33N 48°31' W 122°37'0 0.0
2014-Jul-21 23:33N 48°31' W 122°37'0 0.0
2014-Jul-21 22:33N 48°31' W 122°37'0 0.0
2014-Jul-21 21:33N 48°31' W 122°37'0 0.0
2014-Jul-21 20:33N 48°31' W 122°37'0 0.0
2014-Jul-21 20:18N 48°31' W 122°37'0 0.0
2014-Jul-21 19:33N 48°31' W 122°37'0 0.0
2014-Jul-21 18:33N 48°31' W 122°37'0 0.0
2014-Jul-21 17:33N 48°31' W 122°37'0 0.0
2014-Jul-21 16:33N 48°31' W 122°37'0 0.0
2014-Jul-21 15:33N 48°31' W 122°37'0 0.0
2014-Jul-21 14:33N 48°31' W 122°37'0 0.0
2014-Jul-21 13:33N 48°31' W 122°37'0 0.0
2014-Jul-21 12:33N 48°31' W 122°37'0 0.0
2014-Jul-21 11:33N 48°31' W 122°37'0 0.0
2014-Jul-21 10:33N 48°31' W 122°37'0 0.0
2014-Jul-21 09:33N 48°31' W 122°37'0 0.0
2014-Jul-21 08:33N 48°31' W 122°37'2 1.8
2014-Jul-21 07:33N 48°31' W 122°34'2 1.8
2014-Jul-21 06:33N 48°31' W 122°37'0 0.0
2014-Jul-21 05:33N 48°31' W 122°37'2 1.6
2014-Jul-21 04:33N 48°31' W 122°35'0 0.1
2014-Jul-21 03:33N 48°31' W 122°35'2 1.6
2014-Jul-21 02:33N 48°31' W 122°37'0 0.0
2014-Jul-21 01:33N 48°31' W 122°37'0 0.0
2014-Jul-21 00:33N 48°31' W 122°37'0 0.0
2014-Jul-20 23:33N 48°31' W 122°37'0 0.0
2014-Jul-20 22:33N 48°31' W 122°37'0 0.0
2014-Jul-20 21:33N 48°31' W 122°37'0 0.0
2014-Jul-20 20:33N 48°31' W 122°37'0 0.0
2014-Jul-20 19:33N 48°31' W 122°37'0 0.0
2014-Jul-20 18:33N 48°31' W 122°37'0 0.0
2014-Jul-20 17:33N 48°31' W 122°37'0 0.0
2014-Jul-20 16:33N 48°31' W 122°37'0 0.0
2014-Jul-20 15:33N 48°31' W 122°37'0 0.0
2014-Jul-20 14:33N 48°31' W 122°37'0 0.0
2014-Jul-20 13:33N 48°31' W 122°37'0 0.0
2014-Jul-20 12:33N 48°31' W 122°37'0 0.0
2014-Jul-20 11:33N 48°31' W 122°37'0 0.0
2014-Jul-20 10:33N 48°31' W 122°37'0 0.0
2014-Jul-20 09:33N 48°31' W 122°37'0 0.0
2014-Jul-20 08:33N 48°31' W 122°37'0 0.0
2014-Jul-20 07:33N 48°31' W 122°37'0 0.0
2014-Jul-20 06:33N 48°31' W 122°37'0 0.0
2014-Jul-20 05:33N 48°31' W 122°37'2 2.0
2014-Jul-20 04:33N 48°31' W 122°34'0 0.2
2014-Jul-20 03:33N 48°31' W 122°34'0 0.2
2014-Jul-20 02:33N 48°31' W 122°34'2 1.6
2014-Jul-20 01:33N 48°31' W 122°37'0 0.0
2014-Jul-20 00:33N 48°31' W 122°37'0 0.0
2014-Jul-19 23:33N 48°31' W 122°37'0 0.0
2014-Jul-19 22:33N 48°31' W 122°37'0 0.0
2014-Jul-19 21:33N 48°31' W 122°37'0 0.0
2014-Jul-19 20:33N 48°31' W 122°37'0 0.0
2014-Jul-19 19:33N 48°31' W 122°37'0 0.0
2014-Jul-19 18:33N 48°31' W 122°37'0 0.0
2014-Jul-19 17:33N 48°31' W 122°37'0 0.0
2014-Jul-19 16:33N 48°31' W 122°37'0 0.0
2014-Jul-19 15:33N 48°31' W 122°37'0 0.0
2014-Jul-19 14:33N 48°31' W 122°37'0 0.0
2014-Jul-19 13:33N 48°31' W 122°37'0 0.0
2014-Jul-19 12:33N 48°31' W 122°37'0 0.0
2014-Jul-19 11:33N 48°31' W 122°37'2 1.8
2014-Jul-19 10:33N 48°31' W 122°34'0 0.0
2014-Jul-19 09:33N 48°31' W 122°34'0 0.1
2014-Jul-19 08:33N 48°31' W 122°34'0 0.2
2014-Jul-19 07:33N 48°31' W 122°34'2 1.6
2014-Jul-19 06:33N 48°31' W 122°37'0 0.0
2014-Jul-19 05:33N 48°31' W 122°37'0 0.0
2014-Jul-19 04:33N 48°31' W 122°37'0 0.0
2014-Jul-19 03:33N 48°31' W 122°37'0 0.0
2014-Jul-19 02:33N 48°31' W 122°37'0 0.0
2014-Jul-19 01:33N 48°31' W 122°37'0 0.0
2014-Jul-19 00:33N 48°31' W 122°37'0 0.0
2014-Jul-18 23:33N 48°31' W 122°37'0 0.0
2014-Jul-18 22:33N 48°31' W 122°37'0 0.0
2014-Jul-18 21:33N 48°31' W 122°37'0 0.0
2014-Jul-18 20:33N 48°31' W 122°37'0 0.0
2014-Jul-18 19:33N 48°31' W 122°37'  

Dump ship's entire track history